Other Surface Observations
Issued by NWS Great Falls, MT

Home | Current Version | Previous Version | Text Only | Print | Product List | Glossary On
Versions: 1 2 3 4 5 6 7 8 9 10 11 12 13 14 15 16 17 18 19 20 21 22 23 24 25 26 27 28 29 30 31 32 33 34 35 36 37 38 39 40 41 42 43 44 45 46 47 48 49 50
000
SXUS55 KTFX 250222
OSOTFX

AREA AWOS OBSERVATIONS
NATIONAL WEATHER SERVICE GREAT FALLS MT
0820 PM MDT Thu Apr 24 2014

METAR K1S3 250215Z AUTO 21003KT 10SM 11/02 A2975
METAR K38S 250200Z AUTO 00000KT 10SM 08/02 A2987
METAR K6S0 250215Z AUTO 22009KT 10SM 07/02 A2984
METAR K6S5 250215Z AUTO 16009KT 10SM 07/01 A2989
METAR K79S 250215Z AUTO 26006KT 10/01 A2973
METAR K88M 250215Z AUTO 12004KT 10SM 09/03
METAR KEKS 250215Z AUTO 15004KT 10SM 06/01 A2992
METAR KPO1 250215Z AUTO 22004KT 10SM 13/M08 A2970
METAR KPWD 250215Z AUTO 00000KT 10SM 12/M03 A2971
METAR KS59 250215Z AUTO 22004KT 10SM 08/04 A2981
METAR KS71 250215Z AUTO 08003KT 10SM 13/01 A2970



USA.gov is the U.S. government's official web portal to all federal, state and local government web resources and services.